createdAt,value
2019-04-14T00:00:29.298Z,7.31
2019-04-14T00:03:06.583Z,7.32
2019-04-14T00:05:40.823Z,7.30
2019-04-14T00:08:13.884Z,7.29
2019-04-14T00:10:46.445Z,7.26
2019-04-14T00:13:17.543Z,7.27
2019-04-14T00:15:50.761Z,7.23
2019-04-14T00:18:23.050Z,7.23
2019-04-14T00:20:55.589Z,7.23
2019-04-14T00:23:28.269Z,7.17
2019-04-14T00:26:25.451Z,7.18
2019-04-14T00:28:57.965Z,7.21
2019-04-14T00:31:30.754Z,7.21
2019-04-14T00:34:05.412Z,7.23
2019-04-14T00:36:48.138Z,7.26
2019-04-14T00:39:22.662Z,7.22
2019-04-14T00:42:05.346Z,7.18
2019-04-14T00:44:39.513Z,7.16
2019-04-14T00:47:31.246Z,7.19
2019-04-14T00:50:04.715Z,7.17
2019-04-14T00:52:37.410Z,7.14
2019-04-14T00:55:10.190Z,7.23
2019-04-14T00:57:42.203Z,7.13
2019-04-14T01:00:17.287Z,7.11
2019-04-14T01:02:47.707Z,7.13
2019-04-14T01:05:19.667Z,7.13
2019-04-14T01:07:52.333Z,7.13
2019-04-14T01:10:24.217Z,7.09
2019-04-14T01:12:56.210Z,7.04
2019-04-14T01:15:29.032Z,7.03
2019-04-14T01:18:01.391Z,7.06
2019-04-14T01:20:33.931Z,7.02
2019-04-14T01:23:06.353Z,6.99
2019-04-14T01:25:38.946Z,7.01
2019-04-14T01:28:11.241Z,7.00
2019-04-14T01:30:43.631Z,6.99
2019-04-14T01:33:16.240Z,6.97
2019-04-14T01:35:48.916Z,6.92
2019-04-14T01:38:21.238Z,6.92
2019-04-14T01:40:53.590Z,6.89
2019-04-14T01:43:26.183Z,6.89
2019-04-14T01:46:07.868Z,6.87
2019-04-14T01:48:32.465Z,6.91
2019-04-14T01:51:22.190Z,6.86
2019-04-14T01:54:12.755Z,6.85
2019-04-14T01:56:55.913Z,6.80
2019-04-14T01:59:28.346Z,6.69
2019-04-14T02:02:00.776Z,6.64
2019-04-14T02:04:32.061Z,6.56
2019-04-14T02:07:05.820Z,6.55
2019-04-14T02:09:37.958Z,6.54
2019-04-14T02:12:10.568Z,6.51
2019-04-14T02:14:43.027Z,6.47
2019-04-14T02:17:15.279Z,6.45
2019-04-14T02:19:48.020Z,6.38
2019-04-14T02:22:20.270Z,6.38
2019-04-14T02:24:52.823Z,6.34
2019-04-14T02:27:25.260Z,6.30
2019-04-14T02:29:58.105Z,6.25
2019-04-14T02:32:57.373Z,6.24
2019-04-14T02:35:47.344Z,6.22
2019-04-14T02:38:12.373Z,6.19
2019-04-14T02:43:12.839Z,6.14
2019-04-14T02:45:57.830Z,6.12
2019-04-14T02:50:47.731Z,6.12
2019-04-14T02:53:25.813Z,6.11
2019-04-14T02:56:07.690Z,6.10
2019-04-14T02:58:36.191Z,6.07
2019-04-14T03:01:07.156Z,6.06
2019-04-14T03:03:41.011Z,6.07
2019-04-14T03:08:51.212Z,6.02
2019-04-14T03:11:17.455Z,6.04
2019-04-14T03:13:52.131Z,6.03
2019-04-14T03:16:33.084Z,6.06
2019-04-14T03:19:09.542Z,6.02
2019-04-14T03:24:29.137Z,6.03
2019-04-14T03:27:06.178Z,6.06
2019-04-14T03:30:17.483Z,6.06
2019-04-14T03:32:53.185Z,6.00
2019-04-14T03:35:30.229Z,6.00
2019-04-14T03:37:45.274Z,6.07
2019-04-14T03:40:08.813Z,6.08
2019-04-14T03:42:45.949Z,6.12
2019-04-14T03:45:30.057Z,6.07
2019-04-14T03:48:02.041Z,6.08
2019-04-14T03:50:23.129Z,6.12
2019-04-14T03:52:55.754Z,6.11
2019-04-14T03:55:16.291Z,6.15
2019-04-14T03:57:37.381Z,6.21
2019-04-14T04:00:09.884Z,6.18
2019-04-14T04:02:42.314Z,6.15
2019-04-14T04:05:15.145Z,6.17
2019-04-14T04:07:47.461Z,6.15
2019-04-14T04:10:21.156Z,6.19
2019-04-14T04:12:53.812Z,6.28
2019-04-14T04:15:25.692Z,6.23
2019-04-14T04:18:00.212Z,6.19
2019-04-14T04:20:37.102Z,6.18
2019-04-14T04:23:27.162Z,6.17
2019-04-14T04:26:06.823Z,6.22
2019-04-14T04:28:53.944Z,6.18
2019-04-14T04:31:44.304Z,6.17
2019-04-14T04:34:33.909Z,6.23
2019-04-14T04:37:08.377Z,6.28
2019-04-14T04:39:45.355Z,6.28
2019-04-14T04:42:17.690Z,6.34
2019-04-14T04:44:50.931Z,6.38
2019-04-14T04:47:23.122Z,6.42
2019-04-14T04:49:55.433Z,6.44
2019-04-14T04:52:28.051Z,6.45
2019-04-14T04:55:00.238Z,6.50
2019-04-14T04:57:32.804Z,6.36
2019-04-14T05:00:07.088Z,6.28
2019-04-14T05:02:39.568Z,6.20
2019-04-14T05:05:40.549Z,6.26
2019-04-14T05:08:13.096Z,6.13
2019-04-14T05:10:46.524Z,6.06
2019-04-14T05:13:19.025Z,6.03
2019-04-14T05:15:53.218Z,6.06
2019-04-14T05:18:26.670Z,6.08
2019-04-14T05:20:59.628Z,6.10
2019-04-14T05:23:32.111Z,6.19
2019-04-14T05:26:04.877Z,6.23
2019-04-14T05:28:37.430Z,6.30
2019-04-14T05:31:09.816Z,6.32
2019-04-14T05:33:42.575Z,6.42
2019-04-14T05:36:15.483Z,6.49
2019-04-14T05:38:47.732Z,6.49
2019-04-14T05:41:20.124Z,6.58
2019-04-14T05:43:55.715Z,6.71
2019-04-14T05:46:25.243Z,6.76
2019-04-14T05:48:57.864Z,6.69
2019-04-14T05:51:30.533Z,6.31
2019-04-14T05:54:03.319Z,6.91
2019-04-14T05:56:37.515Z,6.93
2019-04-14T05:59:08.900Z,7.04
2019-04-14T06:01:42.052Z,7.13
2019-04-14T06:04:15.654Z,6.92
2019-04-14T06:06:47.665Z,6.88
2019-04-14T06:09:19.372Z,7.02
2019-04-14T06:11:51.505Z,6.92
2019-04-14T06:14:23.141Z,6.92
2019-04-14T06:16:56.641Z,6.99
2019-04-14T06:19:37.074Z,6.91
2019-04-14T06:22:02.353Z,6.72
2019-04-14T06:24:33.853Z,6.61
2019-04-14T06:27:06.443Z,6.71
2019-04-14T06:29:39.161Z,6.76
2019-04-14T06:32:15.338Z,6.83
2019-04-14T06:34:49.002Z,6.76
2019-04-14T06:37:22.605Z,6.80
2019-04-14T06:39:55.830Z,6.75
2019-04-14T06:42:27.843Z,6.74
2019-04-14T06:44:59.641Z,6.82
2019-04-14T06:47:33.348Z,6.76
2019-04-14T06:50:07.188Z,6.74
2019-04-14T06:52:39.090Z,6.72
2019-04-14T06:55:11.332Z,6.80
2019-04-14T06:57:43.282Z,6.94
2019-04-14T07:00:15.635Z,6.97
2019-04-14T07:02:48.041Z,7.16
2019-04-14T07:05:19.868Z,7.36
2019-04-14T07:07:57.054Z,7.56
2019-04-14T07:10:25.246Z,7.86
2019-04-14T07:12:57.232Z,7.76
2019-04-14T07:15:29.471Z,7.39
2019-04-14T07:18:01.107Z,7.19
2019-04-14T07:20:33.401Z,7.37
2019-04-14T07:23:05.066Z,7.53
2019-04-14T07:25:36.913Z,7.65
2019-04-14T07:28:08.571Z,7.82
2019-04-14T07:30:51.057Z,7.76
2019-04-14T07:33:40.163Z,7.67
2019-04-14T07:36:29.582Z,7.50
2019-04-14T07:39:06.077Z,7.47
2019-04-14T07:41:54.344Z,7.40
2019-04-14T07:44:27.701Z,7.36
2019-04-14T07:47:07.251Z,7.32
2019-04-14T07:49:56.690Z,7.51
2019-04-14T07:52:46.385Z,7.51
2019-04-14T07:55:28.514Z,7.31
2019-04-14T07:58:18.249Z,7.26
2019-04-14T08:00:52.121Z,7.31
2019-04-14T08:03:44.512Z,7.42
2019-04-14T08:06:16.434Z,7.62
2019-04-14T08:08:48.844Z,7.59
2019-04-14T08:11:21.729Z,7.90
2019-04-14T08:13:53.591Z,8.23
2019-04-14T08:16:25.450Z,8.30
2019-04-14T08:18:57.161Z,8.32
2019-04-14T08:21:28.974Z,8.03
2019-04-14T08:24:01.131Z,7.94
2019-04-14T08:26:33.622Z,8.20
2019-04-14T08:29:05.452Z,8.11
2019-04-14T08:31:37.130Z,8.01
2019-04-14T08:34:09.501Z,8.09
2019-04-14T08:36:40.990Z,8.33
2019-04-14T08:39:13.112Z,8.39
2019-04-14T08:41:55.236Z,8.37
2019-04-14T08:44:31.373Z,8.46
2019-04-14T08:47:16.239Z,8.47
2019-04-14T08:49:49.887Z,8.62
2019-04-14T08:52:38.608Z,8.29
2019-04-14T08:55:15.003Z,8.08
2019-04-14T08:57:54.163Z,8.07
2019-04-14T09:00:30.411Z,8.08
2019-04-14T09:03:19.734Z,8.27
2019-04-14T09:05:53.299Z,8.31
2019-04-14T09:08:26.637Z,8.54
2019-04-14T09:11:03.205Z,8.31
2019-04-14T09:13:35.893Z,8.22
2019-04-14T09:16:08.044Z,8.26
2019-04-14T09:18:40.985Z,8.29
2019-04-14T09:21:12.944Z,8.26
2019-04-14T09:23:44.850Z,8.28
2019-04-14T09:26:16.920Z,8.24
2019-04-14T09:28:48.727Z,8.23
2019-04-14T09:31:20.844Z,8.10
2019-04-14T09:33:52.500Z,8.03
2019-04-14T09:36:24.266Z,7.97
2019-04-14T09:38:56.115Z,8.00
2019-04-14T09:41:28.895Z,7.81
2019-04-14T09:44:00.649Z,7.89
2019-04-14T09:46:32.456Z,7.93
2019-04-14T09:49:04.171Z,8.12
2019-04-14T09:51:36.040Z,8.23
2019-04-14T09:54:07.815Z,8.26
2019-04-14T09:56:39.747Z,8.27
2019-04-14T09:59:11.397Z,8.39
2019-04-14T10:01:44.582Z,8.39
2019-04-14T10:04:16.456Z,8.15
2019-04-14T10:06:48.246Z,8.15
2019-04-14T10:09:21.104Z,8.15
2019-04-14T10:11:56.263Z,8.37
2019-04-14T10:14:26.486Z,8.54
2019-04-14T10:17:01.197Z,8.59
2019-04-14T10:19:31.990Z,8.56
2019-04-14T10:22:04.934Z,8.46
2019-04-14T10:24:36.959Z,8.55
2019-04-14T10:27:09.882Z,8.68
2019-04-14T10:29:41.509Z,8.79
2019-04-14T10:32:13.891Z,8.81
2019-04-14T10:34:45.979Z,9.03
2019-04-14T10:37:17.937Z,9.17
2019-04-14T10:39:49.658Z,9.32
2019-04-14T10:42:21.797Z,9.58
2019-04-14T10:44:54.193Z,9.35
2019-04-14T10:47:26.263Z,9.47
2019-04-14T10:49:57.874Z,9.64
2019-04-14T10:52:29.906Z,9.12
2019-04-14T10:55:01.643Z,9.14
2019-04-14T10:57:34.564Z,9.19
2019-04-14T11:00:09.886Z,9.50
2019-04-14T11:02:41.705Z,9.27
2019-04-14T11:05:13.819Z,9.30
2019-04-14T11:07:45.392Z,9.20
2019-04-14T11:10:17.412Z,9.11
2019-04-14T11:12:49.382Z,9.21
2019-04-14T11:15:21.735Z,9.70
2019-04-14T11:17:53.394Z,9.46
2019-04-14T11:20:27.101Z,9.24
2019-04-14T11:23:03.414Z,9.05
2019-04-14T11:25:33.034Z,8.99
2019-04-14T11:28:04.745Z,8.99
2019-04-14T11:30:36.792Z,9.07
2019-04-14T11:33:10.159Z,9.16
2019-04-14T11:35:49.706Z,9.18
2019-04-14T11:38:26.056Z,9.47
2019-04-14T11:40:59.276Z,9.72
2019-04-14T11:43:31.424Z,9.74
2019-04-14T11:46:04.232Z,9.74
2019-04-14T11:48:36.497Z,9.74
2019-04-14T11:51:08.362Z,9.57
2019-04-14T11:53:40.577Z,9.55
2019-04-14T11:56:12.323Z,9.55
2019-04-14T11:58:44.059Z,9.50
2019-04-14T12:01:34.043Z,9.33
2019-04-14T12:04:10.498Z,9.22
2019-04-14T12:07:02.093Z,9.46
2019-04-14T12:09:44.385Z,9.48
2019-04-14T12:12:15.988Z,9.48
2019-04-14T12:14:48.099Z,9.58
2019-04-14T12:17:19.814Z,9.38
2019-04-14T12:19:53.063Z,9.64
2019-04-14T12:22:25.507Z,9.61
2019-04-14T12:24:57.385Z,9.50
2019-04-14T12:27:29.360Z,9.44
2019-04-14T12:30:01.367Z,9.40
2019-04-14T12:32:33.605Z,9.24
2019-04-14T12:35:06.193Z,9.17
2019-04-14T12:37:37.895Z,9.18
2019-04-14T12:40:10.612Z,9.16
2019-04-14T12:42:47.095Z,9.12
2019-04-14T12:45:29.317Z,9.12
2019-04-14T12:48:12.092Z,9.06
2019-04-14T12:50:44.668Z,9.10
2019-04-14T12:53:16.091Z,8.97
2019-04-14T12:55:47.911Z,9.04
2019-04-14T12:58:21.429Z,9.01
2019-04-14T13:00:54.714Z,9.05
2019-04-14T13:03:26.874Z,9.05
2019-04-14T13:05:58.737Z,9.10
2019-04-14T13:08:30.634Z,9.03
2019-04-14T13:11:02.464Z,9.01
2019-04-14T13:13:36.155Z,9.04
2019-04-14T13:16:08.243Z,9.03
2019-04-14T13:18:40.087Z,9.02
2019-04-14T13:21:12.198Z,8.91
2019-04-14T13:23:43.969Z,8.91
2019-04-14T13:26:16.091Z,9.03
2019-04-14T13:28:47.816Z,8.86
2019-04-14T13:31:19.998Z,8.90
2019-04-14T13:33:54.702Z,8.80
2019-04-14T13:36:25.769Z,8.81
2019-04-14T13:38:57.536Z,8.82
2019-04-14T13:41:29.391Z,8.79
2019-04-14T13:44:01.253Z,8.85
2019-04-14T13:46:33.171Z,8.74
2019-04-14T13:49:04.929Z,8.85
2019-04-14T13:51:36.948Z,8.81
2019-04-14T13:54:08.792Z,8.76
2019-04-14T13:56:40.709Z,8.77
2019-04-14T13:59:12.750Z,8.72
2019-04-14T14:01:45.002Z,8.74
2019-04-14T14:04:16.671Z,8.66
2019-04-14T14:06:48.872Z,8.62
2019-04-14T14:09:20.846Z,8.66
2019-04-14T14:12:03.746Z,8.69
2019-04-14T14:14:54.723Z,8.75
2019-04-14T14:17:39.900Z,8.72
2019-04-14T14:20:30.306Z,8.75
2019-04-14T14:23:06.670Z,8.80
2019-04-14T14:25:48.588Z,8.81
2019-04-14T14:28:20.297Z,8.74
2019-04-14T14:30:52.342Z,8.77
2019-04-14T14:33:24.180Z,8.66
2019-04-14T14:35:56.272Z,8.56
2019-04-14T14:38:28.034Z,8.36
2019-04-14T14:41:01.755Z,8.39
2019-04-14T14:43:33.709Z,8.33
2019-04-14T14:46:07.387Z,8.33
2019-04-14T14:48:40.473Z,8.27
2019-04-14T14:51:30.380Z,8.28
2019-04-14T14:54:02.134Z,8.20
2019-04-14T14:56:34.887Z,8.12
2019-04-14T14:59:06.803Z,8.10
2019-04-14T15:01:38.942Z,8.05
2019-04-14T15:04:10.901Z,7.91
2019-04-14T15:06:43.072Z,7.92
2019-04-14T15:09:14.825Z,7.92
2019-04-14T15:11:46.893Z,7.97
2019-04-14T15:14:18.581Z,7.89
2019-04-14T15:16:50.922Z,7.92
2019-04-14T15:19:22.473Z,7.87
2019-04-14T15:21:54.455Z,7.83
2019-04-14T15:24:26.105Z,7.71
2019-04-14T15:26:58.252Z,7.53
2019-04-14T15:29:29.908Z,7.67
2019-04-14T15:32:01.903Z,7.63
2019-04-14T15:34:33.540Z,7.62
2019-04-14T15:37:05.759Z,7.60
2019-04-14T15:39:37.865Z,7.54
2019-04-14T15:42:09.731Z,7.48
2019-04-14T15:44:41.416Z,7.28
2019-04-14T15:47:13.155Z,7.39
2019-04-14T15:49:44.993Z,7.45
2019-04-14T15:52:16.744Z,7.40
2019-04-14T15:54:48.719Z,7.35
2019-04-14T15:57:37.205Z,7.37
2019-04-14T16:00:23.291Z,7.30
2019-04-14T16:03:13.864Z,7.28
2019-04-14T16:05:47.263Z,7.32
2019-04-14T16:08:23.681Z,7.25
2019-04-14T16:10:59.859Z,7.22
2019-04-14T16:13:33.179Z,7.16
2019-04-14T16:16:24.509Z,7.15
2019-04-14T16:18:59.172Z,7.15
2019-04-14T16:21:31.182Z,7.15
2019-04-14T16:24:02.876Z,7.12
2019-04-14T16:26:51.724Z,7.08
2019-04-14T16:29:27.980Z,7.09
2019-04-14T16:32:17.034Z,7.03
2019-04-14T16:34:56.137Z,7.04
2019-04-14T16:37:28.024Z,7.01
2019-04-14T16:40:00.232Z,7.01
2019-04-14T16:42:32.302Z,7.01
2019-04-14T16:45:06.435Z,6.97
2019-04-14T16:47:40.090Z,6.93
2019-04-14T16:50:12.035Z,6.95
2019-04-14T16:52:51.584Z,6.93
2019-04-14T16:55:33.976Z,6.94
2019-04-14T16:58:19.949Z,6.88
2019-04-14T17:01:09.824Z,6.91
2019-04-14T17:03:42.055Z,6.87
2019-04-14T17:06:13.991Z,6.82
2019-04-14T17:08:45.589Z,6.81
2019-04-14T17:11:17.755Z,6.76
2019-04-14T17:13:51.126Z,6.78
2019-04-14T17:16:27.295Z,6.79
2019-04-14T17:19:03.329Z,6.81
2019-04-14T17:21:41.129Z,6.76
2019-04-14T17:24:29.805Z,6.71
2019-04-14T17:27:21.611Z,6.69
2019-04-14T17:30:10.024Z,6.62
2019-04-14T17:32:53.113Z,6.58
2019-04-14T17:35:38.545Z,6.63
2019-04-14T17:38:28.453Z,6.55
2019-04-14T17:41:08.158Z,6.49
2019-04-14T17:43:41.869Z,6.45
2019-04-14T17:46:17.932Z,6.44
2019-04-14T17:48:54.835Z,6.42
2019-04-14T17:51:28.524Z,6.43
2019-04-14T17:54:28.628Z,6.37
2019-04-14T17:56:55.647Z,6.36
2019-04-14T17:59:30.734Z,6.30
2019-04-14T18:02:04.228Z,6.27
2019-04-14T18:04:52.663Z,6.21
2019-04-14T18:07:26.365Z,6.16
2019-04-14T18:10:05.652Z,6.13
2019-04-14T18:12:38.953Z,6.11
2019-04-14T18:15:15.419Z,6.09
2019-04-14T18:17:54.732Z,6.08
2019-04-14T18:20:29.393Z,5.87
2019-04-14T18:23:01.218Z,5.97
2019-04-14T18:25:33.109Z,5.94
2019-04-14T18:28:09.119Z,6.00
2019-04-14T18:30:48.185Z,5.92
2019-04-14T18:33:31.073Z,5.87
2019-04-14T18:36:03.567Z,5.85
2019-04-14T18:38:36.796Z,5.84
2019-04-14T18:41:28.161Z,5.81
2019-04-14T18:44:16.587Z,5.79
2019-04-14T18:47:04.720Z,5.74
2019-04-14T18:49:54.636Z,5.75
2019-04-14T18:52:42.404Z,5.75
2019-04-14T18:55:21.820Z,5.72
2019-04-14T18:58:11.307Z,5.67
2019-04-14T19:00:47.852Z,5.66
2019-04-14T19:03:19.577Z,5.72
2019-04-14T19:05:51.646Z,5.70
2019-04-14T19:08:23.239Z,5.72
2019-04-14T19:14:00.424Z,5.63
2019-04-14T19:16:39.912Z,5.57
2019-04-14T19:19:08.780Z,5.61
2019-04-14T19:21:40.250Z,5.59
2019-04-14T19:24:12.263Z,5.56
2019-04-14T19:26:44.002Z,5.53
2019-04-14T19:29:16.032Z,5.55
2019-04-14T19:31:47.844Z,5.52
2019-04-14T19:34:19.668Z,5.48
2019-04-14T19:36:51.480Z,5.48
2019-04-14T19:39:24.147Z,5.43
2019-04-14T19:41:56.144Z,5.43
2019-04-14T19:44:28.101Z,5.37
2019-04-14T19:46:59.809Z,5.36
2019-04-14T19:49:31.907Z,5.36
2019-04-14T19:52:03.680Z,5.33
2019-04-14T19:54:35.458Z,5.31
2019-04-14T19:57:07.554Z,5.27
2019-04-14T19:59:39.515Z,5.28
2019-04-14T20:02:11.091Z,5.28
2019-04-14T20:04:43.050Z,5.26
2019-04-14T20:07:14.516Z,5.20
2019-04-14T20:09:46.256Z,5.26
2019-04-14T20:12:17.998Z,5.21
2019-04-14T20:14:49.886Z,5.25
2019-04-14T20:17:38.199Z,5.24
2019-04-14T20:20:12.339Z,5.16
2019-04-14T20:22:58.467Z,5.17
2019-04-14T20:25:48.349Z,5.22
2019-04-14T20:28:25.996Z,5.14
2019-04-14T20:30:58.996Z,5.19
2019-04-14T20:33:30.672Z,5.15
2019-04-14T20:36:05.225Z,5.15
2019-04-14T20:38:35.732Z,5.12
2019-04-14T20:41:07.515Z,5.11
2019-04-14T20:43:39.275Z,5.07
2019-04-14T20:46:11.166Z,5.02
2019-04-14T20:48:42.932Z,5.09
2019-04-14T20:51:14.681Z,5.01
2019-04-14T20:53:46.387Z,5.02
2019-04-14T20:56:18.192Z,5.00
2019-04-14T20:58:50.156Z,5.00
2019-04-14T21:01:21.989Z,4.95
2019-04-14T21:04:04.526Z,4.95
2019-04-14T21:06:40.489Z,4.94
2019-04-14T21:09:19.778Z,4.91
2019-04-14T21:11:52.885Z,4.96
2019-04-14T21:14:31.084Z,5.01
2019-04-14T21:17:07.787Z,5.04
2019-04-14T21:19:41.590Z,4.98
2019-04-14T21:22:15.058Z,4.96
2019-04-14T21:25:00.571Z,4.98
2019-04-14T21:27:52.470Z,4.99
2019-04-14T21:30:26.055Z,4.93
2019-04-14T21:33:08.334Z,4.90
2019-04-14T21:35:56.651Z,4.78
2019-04-14T21:38:45.203Z,4.71
2019-04-14T21:41:21.568Z,4.71
2019-04-14T21:43:53.480Z,4.60
2019-04-14T21:46:25.021Z,4.50
2019-04-14T21:48:57.195Z,4.50
2019-04-14T21:51:46.641Z,4.44
2019-04-14T21:54:19.663Z,4.28
2019-04-14T21:57:08.940Z,4.24
2019-04-14T21:59:48.541Z,4.18
2019-04-14T22:02:38.375Z,4.12
2019-04-14T22:05:12.554Z,4.15
2019-04-14T22:07:45.710Z,4.04
2019-04-14T22:10:19.420Z,3.95
2019-04-14T22:12:51.357Z,3.92
2019-04-14T22:15:23.541Z,3.92
2019-04-14T22:17:55.425Z,3.87
2019-04-14T22:20:28.078Z,3.91
2019-04-14T22:23:01.544Z,3.90
2019-04-14T22:25:33.155Z,3.84
2019-04-14T22:28:04.902Z,3.87
2019-04-14T22:30:36.709Z,3.81
2019-04-14T22:33:08.936Z,3.84
2019-04-14T22:35:40.510Z,3.76
2019-04-14T22:38:12.320Z,3.75
2019-04-14T22:40:44.166Z,3.70
2019-04-14T22:43:16.597Z,3.69
2019-04-14T22:45:48.393Z,3.68
2019-04-14T22:48:20.291Z,3.65
2019-04-14T22:50:51.831Z,3.65
2019-04-14T22:53:23.608Z,3.62
2019-04-14T22:55:55.548Z,3.64
2019-04-14T22:58:27.326Z,3.59
2019-04-14T23:01:10.024Z,3.60
2019-04-14T23:03:45.513Z,3.58
2019-04-14T23:06:27.175Z,3.56
2019-04-14T23:09:16.647Z,3.56
2019-04-14T23:11:50.246Z,3.56
2019-04-14T23:14:23.618Z,3.50
2019-04-14T23:17:08.747Z,3.50
2019-04-14T23:19:48.085Z,3.51
2019-04-14T23:22:28.599Z,3.51
2019-04-14T23:25:00.285Z,3.54
2019-04-14T23:27:32.045Z,3.49
2019-04-14T23:30:04.820Z,3.47
2019-04-14T23:32:36.554Z,3.48
2019-04-14T23:35:08.504Z,3.46
2019-04-14T23:37:40.166Z,3.42
2019-04-14T23:40:12.291Z,3.45
2019-04-14T23:42:44.645Z,3.40
2019-04-14T23:45:16.782Z,3.41
2019-04-14T23:47:48.386Z,3.36
2019-04-14T23:50:20.301Z,3.35
2019-04-14T23:52:51.855Z,3.34
2019-04-14T23:55:24.025Z,3.26
2019-04-14T23:57:58.942Z,3.32
